sensor_id;sensor_type;location;lat;lon;timestamp;temperature;humidity
29173;DHT22;16223;47.966;-1.616;2022-07-29T00:00:08;18.5;70
29173;DHT22;16223;47.966;-1.616;2022-07-29T00:01:07;18.5;70
29173;DHT22;16223;47.966;-1.616;2022-07-29T00:02:07;18.5;70
29173;DHT22;16223;47.966;-1.616;2022-07-29T00:03:07;18.5;70
29173;DHT22;16223;47.966;-1.616;2022-07-29T00:04:07;18.5;70
29173;DHT22;16223;47.966;-1.616;2022-07-29T00:05:08;18.5;70
29173;DHT22;16223;47.966;-1.616;2022-07-29T00:06:07;18.5;70
29173;DHT22;16223;47.966;-1.616;2022-07-29T00:07:07;18.5;70
29173;DHT22;16223;47.966;-1.616;2022-07-29T00:08:07;18.5;70
29173;DHT22;16223;47.966;-1.616;2022-07-29T00:09:06;18.5;70
29173;DHT22;16223;47.966;-1.616;2022-07-29T00:10:07;18.5;70
29173;DHT22;16223;47.966;-1.616;2022-07-29T00:11:07;18.5;70
29173;DHT22;16223;47.966;-1.616;2022-07-29T00:12:07;18.5;70
29173;DHT22;16223;47.966;-1.616;2022-07-29T00:13:07;18.5;70
29173;DHT22;16223;47.966;-1.616;2022-07-29T00:14:07;18.5;70
29173;DHT22;16223;47.966;-1.616;2022-07-29T00:15:08;18.5;70
29173;DHT22;16223;47.966;-1.616;2022-07-29T00:16:07;18.5;70
29173;DHT22;16223;47.966;-1.616;2022-07-29T00:17:06;18.4;74
29173;DHT22;16223;47.966;-1.616;2022-07-29T00:18:07;18.4;74
29173;DHT22;16223;47.966;-1.616;2022-07-29T00:19:07;18.4;74
29173;DHT22;16223;47.966;-1.616;2022-07-29T00:20:09;18.4;74
29173;DHT22;16223;47.966;-1.616;2022-07-29T00:21:07;18.4;74
29173;DHT22;16223;47.966;-1.616;2022-07-29T00:22:07;18.4;74
29173;DHT22;16223;47.966;-1.616;2022-07-29T00:23:07;18.4;74
29173;DHT22;16223;47.966;-1.616;2022-07-29T00:24:07;18.4;74
29173;DHT22;16223;47.966;-1.616;2022-07-29T00:25:07;18.4;74
29173;DHT22;16223;47.966;-1.616;2022-07-29T00:26:07;18.4;74
29173;DHT22;16223;47.966;-1.616;2022-07-29T00:27:08;18.4;74
29173;DHT22;16223;47.966;-1.616;2022-07-29T00:28:08;18.4;74
29173;DHT22;16223;47.966;-1.616;2022-07-29T00:29:07;18.4;74
29173;DHT22;16223;47.966;-1.616;2022-07-29T00:30:08;18.4;74
29173;DHT22;16223;47.966;-1.616;2022-07-29T00:31:07;18.4;74
29173;DHT22;16223;47.966;-1.616;2022-07-29T00:32:07;18.4;74
29173;DHT22;16223;47.966;-1.616;2022-07-29T00:33:07;18.4;74
29173;DHT22;16223;47.966;-1.616;2022-07-29T00:34:06;18.4;74
29173;DHT22;16223;47.966;-1.616;2022-07-29T00:35:08;18.4;74
29173;DHT22;16223;47.966;-1.616;2022-07-29T00:36:07;18.4;74
29173;DHT22;16223;47.966;-1.616;2022-07-29T00:37:07;18.4;74
29173;DHT22;16223;47.966;-1.616;2022-07-29T00:38:07;18.4;74
29173;DHT22;16223;47.966;-1.616;2022-07-29T00:39:07;18.4;74
29173;DHT22;16223;47.966;-1.616;2022-07-29T00:40:08;18.4;74
29173;DHT22;16223;47.966;-1.616;2022-07-29T00:41:06;18.4;74
29173;DHT22;16223;47.966;-1.616;2022-07-29T00:42:10;18.4;74
29173;DHT22;16223;47.966;-1.616;2022-07-29T00:43:07;18.4;74
29173;DHT22;16223;47.966;-1.616;2022-07-29T00:44:07;18.4;74
29173;DHT22;16223;47.966;-1.616;2022-07-29T00:45:08;18.4;74
29173;DHT22;16223;47.966;-1.616;2022-07-29T00:46:07;18.4;74
29173;DHT22;16223;47.966;-1.616;2022-07-29T00:47:07;18.4;74
29173;DHT22;16223;47.966;-1.616;2022-07-29T00:48:08;18.4;74
29173;DHT22;16223;47.966;-1.616;2022-07-29T00:49:07;18.4;74
29173;DHT22;16223;47.966;-1.616;2022-07-29T00:50:09;18.4;74
29173;DHT22;16223;47.966;-1.616;2022-07-29T00:51:08;18.4;74
29173;DHT22;16223;47.966;-1.616;2022-07-29T00:52:16;18.4;74
29173;DHT22;16223;47.966;-1.616;2022-07-29T00:53:08;18.4;74
29173;DHT22;16223;47.966;-1.616;2022-07-29T00:54:07;18.4;74
29173;DHT22;16223;47.966;-1.616;2022-07-29T00:55:09;18.3;75
29173;DHT22;16223;47.966;-1.616;2022-07-29T00:56:07;18.3;75
29173;DHT22;16223;47.966;-1.616;2022-07-29T00:57:08;18.3;75
29173;DHT22;16223;47.966;-1.616;2022-07-29T00:58:07;18.3;75
29173;DHT22;16223;47.966;-1.616;2022-07-29T00:59:07;18.3;75
29173;DHT22;16223;47.966;-1.616;2022-07-29T01:00:09;18.3;75
29173;DHT22;16223;47.966;-1.616;2022-07-29T01:01:06;18.3;75
29173;DHT22;16223;47.966;-1.616;2022-07-29T01:02:17;18.3;75
29173;DHT22;16223;47.966;-1.616;2022-07-29T01:03:17;18.3;75
29173;DHT22;16223;47.966;-1.616;2022-07-29T01:04:08;18.3;75
29173;DHT22;16223;47.966;-1.616;2022-07-29T01:05:07;18.3;75
29173;DHT22;16223;47.966;-1.616;2022-07-29T01:06:07;18.3;75
29173;DHT22;16223;47.966;-1.616;2022-07-29T01:07:08;18.3;75
29173;DHT22;16223;47.966;-1.616;2022-07-29T01:08:07;18.3;75
29173;DHT22;16223;47.966;-1.616;2022-07-29T01:09:07;18.3;75
29173;DHT22;16223;47.966;-1.616;2022-07-29T01:10:09;18.3;75
29173;DHT22;16223;47.966;-1.616;2022-07-29T01:11:07;18.3;75
29173;DHT22;16223;47.966;-1.616;2022-07-29T01:12:08;18.3;75
29173;DHT22;16223;47.966;-1.616;2022-07-29T01:13:07;18.3;75
29173;DHT22;16223;47.966;-1.616;2022-07-29T01:14:08;18.3;75
29173;DHT22;16223;47.966;-1.616;2022-07-29T01:15:08;18.3;75
29173;DHT22;16223;47.966;-1.616;2022-07-29T01:16:12;18.1;75
29173;DHT22;16223;47.966;-1.616;2022-07-29T01:17:11;18.1;75
29173;DHT22;16223;47.966;-1.616;2022-07-29T01:18:11;18.1;75
29173;DHT22;16223;47.966;-1.616;2022-07-29T01:19:13;18.1;75
29173;DHT22;16223;47.966;-1.616;2022-07-29T01:20:10;18.1;75
29173;DHT22;16223;47.966;-1.616;2022-07-29T01:21:21;18.1;75
29173;DHT22;16223;47.966;-1.616;2022-07-29T01:22:24;18.1;75
29173;DHT22;16223;47.966;-1.616;2022-07-29T01:23:22;18.1;75
29173;DHT22;16223;47.966;-1.616;2022-07-29T01:24:25;18.1;75
29173;DHT22;16223;47.966;-1.616;2022-07-29T01:25:54;18.1;75
29173;DHT22;16223;47.966;-1.616;2022-07-29T01:27:21;18.1;75
29173;DHT22;16223;47.966;-1.616;2022-07-29T01:28:30;18.1;75
29173;DHT22;16223;47.966;-1.616;2022-07-29T01:29:15;18.1;75
29173;DHT22;16223;47.966;-1.616;2022-07-29T01:30:08;18.1;75
29173;DHT22;16223;47.966;-1.616;2022-07-29T01:31:07;18.1;75
29173;DHT22;16223;47.966;-1.616;2022-07-29T01:32:10;18.1;75
29173;DHT22;16223;47.966;-1.616;2022-07-29T01:33:11;18.1;75
29173;DHT22;16223;47.966;-1.616;2022-07-29T01:34:08;18.1;75
29173;DHT22;16223;47.966;-1.616;2022-07-29T01:35:10;18.1;75
29173;DHT22;16223;47.966;-1.616;2022-07-29T01:36:10;18.1;75
29173;DHT22;16223;47.966;-1.616;2022-07-29T01:37:12;18.1;75
29173;DHT22;16223;47.966;-1.616;2022-07-29T01:38:12;18.1;75
29173;DHT22;16223;47.966;-1.616;2022-07-29T01:39:10;18.1;75
29173;DHT22;16223;47.966;-1.616;2022-07-29T01:40:11;18.1;75
29173;DHT22;16223;47.966;-1.616;2022-07-29T01:41:10;18.1;75
29173;DHT22;16223;47.966;-1.616;2022-07-29T01:42:12;18.1;75
29173;DHT22;16223;47.966;-1.616;2022-07-29T01:43:12;18.1;75
29173;DHT22;16223;47.966;-1.616;2022-07-29T01:44:13;18.1;75
29173;DHT22;16223;47.966;-1.616;2022-07-29T01:45:10;18.1;75
29173;DHT22;16223;47.966;-1.616;2022-07-29T01:46:12;18.1;75
29173;DHT22;16223;47.966;-1.616;2022-07-29T01:47:13;18.1;75
29173;DHT22;16223;47.966;-1.616;2022-07-29T01:48:11;18.1;75
29173;DHT22;16223;47.966;-1.616;2022-07-29T01:49:14;18.1;75
29173;DHT22;16223;47.966;-1.616;2022-07-29T01:50:11;18.1;75
29173;DHT22;16223;47.966;-1.616;2022-07-29T01:51:11;18.1;75
29173;DHT22;16223;47.966;-1.616;2022-07-29T01:52:11;18.1;75
29173;DHT22;16223;47.966;-1.616;2022-07-29T01:53:09;18.1;75
29173;DHT22;16223;47.966;-1.616;2022-07-29T01:54:10;18.1;75
29173;DHT22;16223;47.966;-1.616;2022-07-29T01:55:11;18.1;75
29173;DHT22;16223;47.966;-1.616;2022-07-29T01:56:07;18.1;75
29173;DHT22;16223;47.966;-1.616;2022-07-29T01:57:09;18.1;75
29173;DHT22;16223;47.966;-1.616;2022-07-29T01:58:07;18.1;75
29173;DHT22;16223;47.966;-1.616;2022-07-29T01:59:08;18.1;75
29173;DHT22;16223;47.966;-1.616;2022-07-29T02:00:08;18.1;75
29173;DHT22;16223;47.966;-1.616;2022-07-29T02:01:08;18.1;75
29173;DHT22;16223;47.966;-1.616;2022-07-29T02:02:08;18.1;75
29173;DHT22;16223;47.966;-1.616;2022-07-29T02:03:11;18.1;75
29173;DHT22;16223;47.966;-1.616;2022-07-29T02:04:09;18.1;75
29173;DHT22;16223;47.966;-1.616;2022-07-29T02:05:09;18.1;75
29173;DHT22;16223;47.966;-1.616;2022-07-29T02:06:09;18.1;75
29173;DHT22;16223;47.966;-1.616;2022-07-29T02:07:09;18.1;75
29173;DHT22;16223;47.966;-1.616;2022-07-29T02:08:08;17.9;76
29173;DHT22;16223;47.966;-1.616;2022-07-29T02:09:08;17.9;76
29173;DHT22;16223;47.966;-1.616;2022-07-29T02:10:10;17.9;76
29173;DHT22;16223;47.966;-1.616;2022-07-29T02:11:09;17.9;76
29173;DHT22;16223;47.966;-1.616;2022-07-29T02:12:08;17.9;76
29173;DHT22;16223;47.966;-1.616;2022-07-29T02:13:08;17.9;76
29173;DHT22;16223;47.966;-1.616;2022-07-29T02:14:07;17.9;76
29173;DHT22;16223;47.966;-1.616;2022-07-29T02:15:08;17.7;76
29173;DHT22;16223;47.966;-1.616;2022-07-29T02:16:08;17.7;76
29173;DHT22;16223;47.966;-1.616;2022-07-29T02:17:07;17.7;76
29173;DHT22;16223;47.966;-1.616;2022-07-29T02:18:11;17.7;76
29173;DHT22;16223;47.966;-1.616;2022-07-29T02:19:08;17.7;76
29173;DHT22;16223;47.966;-1.616;2022-07-29T02:20:08;17.7;76
29173;DHT22;16223;47.966;-1.616;2022-07-29T02:21:07;17.7;76
29173;DHT22;16223;47.966;-1.616;2022-07-29T02:22:07;17.7;76
29173;DHT22;16223;47.966;-1.616;2022-07-29T02:23:08;17.7;76
29173;DHT22;16223;47.966;-1.616;2022-07-29T02:24:07;17.7;76
29173;DHT22;16223;47.966;-1.616;2022-07-29T02:25:09;17.7;76
29173;DHT22;16223;47.966;-1.616;2022-07-29T02:26:09;17.7;76
29173;DHT22;16223;47.966;-1.616;2022-07-29T02:27:07;17.7;76
29173;DHT22;16223;47.966;-1.616;2022-07-29T02:28:08;17.7;76
29173;DHT22;16223;47.966;-1.616;2022-07-29T02:29:07;17.7;76
29173;DHT22;16223;47.966;-1.616;2022-07-29T02:30:08;17.7;76
29173;DHT22;16223;47.966;-1.616;2022-07-29T02:31:07;17.7;76
29173;DHT22;16223;47.966;-1.616;2022-07-29T02:32:09;17.7;76
29173;DHT22;16223;47.966;-1.616;2022-07-29T02:33:08;17.7;76
29173;DHT22;16223;47.966;-1.616;2022-07-29T02:34:08;17.7;76
29173;DHT22;16223;47.966;-1.616;2022-07-29T02:35:08;17.7;76
29173;DHT22;16223;47.966;-1.616;2022-07-29T02:36:07;17.7;76
29173;DHT22;16223;47.966;-1.616;2022-07-29T02:37:07;17.7;76
29173;DHT22;16223;47.966;-1.616;2022-07-29T02:38:07;17.7;76
29173;DHT22;16223;47.966;-1.616;2022-07-29T02:39:08;17.7;76
29173;DHT22;16223;47.966;-1.616;2022-07-29T02:40:09;17.7;76
29173;DHT22;16223;47.966;-1.616;2022-07-29T02:41:10;17.7;76
29173;DHT22;16223;47.966;-1.616;2022-07-29T02:42:10;17.7;76
29173;DHT22;16223;47.966;-1.616;2022-07-29T02:43:08;17.7;76
29173;DHT22;16223;47.966;-1.616;2022-07-29T02:44:12;17.7;76
29173;DHT22;16223;47.966;-1.616;2022-07-29T02:45:08;17.7;76
29173;DHT22;16223;47.966;-1.616;2022-07-29T02:46:08;17.7;76
29173;DHT22;16223;47.966;-1.616;2022-07-29T02:47:11;17.7;76
29173;DHT22;16223;47.966;-1.616;2022-07-29T02:48:14;17.7;76
29173;DHT22;16223;47.966;-1.616;2022-07-29T02:49:13;17.7;76
29173;DHT22;16223;47.966;-1.616;2022-07-29T02:50:11;17.7;76
29173;DHT22;16223;47.966;-1.616;2022-07-29T02:51:12;17.7;76
29173;DHT22;16223;47.966;-1.616;2022-07-29T02:52:12;17.7;76
29173;DHT22;16223;47.966;-1.616;2022-07-29T02:53:12;17.7;76
29173;DHT22;16223;47.966;-1.616;2022-07-29T02:54:09;17.7;76
29173;DHT22;16223;47.966;-1.616;2022-07-29T02:55:14;17.7;76
29173;DHT22;16223;47.966;-1.616;2022-07-29T02:56:11;17.7;76
29173;DHT22;16223;47.966;-1.616;2022-07-29T02:57:14;17.7;76
29173;DHT22;16223;47.966;-1.616;2022-07-29T02:58:11;17.7;76
29173;DHT22;16223;47.966;-1.616;2022-07-29T02:59:11;17.7;76
29173;DHT22;16223;47.966;-1.616;2022-07-29T03:00:09;17.7;76
29173;DHT22;16223;47.966;-1.616;2022-07-29T03:01:14;17.7;76
29173;DHT22;16223;47.966;-1.616;2022-07-29T03:02:08;17.7;76
29173;DHT22;16223;47.966;-1.616;2022-07-29T03:03:15;17.9;75
29173;DHT22;16223;47.966;-1.616;2022-07-29T03:04:06;17.9;75
29173;DHT22;16223;47.966;-1.616;2022-07-29T03:05:10;17.9;75
29173;DHT22;16223;47.966;-1.616;2022-07-29T03:06:07;17.9;75
29173;DHT22;16223;47.966;-1.616;2022-07-29T03:07:18;17.9;75
29173;DHT22;16223;47.966;-1.616;2022-07-29T03:08:09;17.9;75
29173;DHT22;16223;47.966;-1.616;2022-07-29T03:09:08;17.9;75
29173;DHT22;16223;47.966;-1.616;2022-07-29T03:10:08;17.9;75
29173;DHT22;16223;47.966;-1.616;2022-07-29T03:11:07;17.9;75
29173;DHT22;16223;47.966;-1.616;2022-07-29T03:12:08;17.9;75
29173;DHT22;16223;47.966;-1.616;2022-07-29T03:13:08;17.9;75
29173;DHT22;16223;47.966;-1.616;2022-07-29T03:14:07;17.9;75
29173;DHT22;16223;47.966;-1.616;2022-07-29T03:15:08;17.9;75
29173;DHT22;16223;47.966;-1.616;2022-07-29T03:16:07;17.9;75
29173;DHT22;16223;47.966;-1.616;2022-07-29T03:17:08;17.9;75
29173;DHT22;16223;47.966;-1.616;2022-07-29T03:18:08;17.9;75
29173;DHT22;16223;47.966;-1.616;2022-07-29T03:19:07;17.9;75
29173;DHT22;16223;47.966;-1.616;2022-07-29T03:20:10;17.9;75
29173;DHT22;16223;47.966;-1.616;2022-07-29T03:21:07;17.9;75
29173;DHT22;16223;47.966;-1.616;2022-07-29T03:22:08;17.9;75
29173;DHT22;16223;47.966;-1.616;2022-07-29T03:23:07;17.9;75
29173;DHT22;16223;47.966;-1.616;2022-07-29T03:24:08;17.9;75
29173;DHT22;16223;47.966;-1.616;2022-07-29T03:25:10;17.9;75
29173;DHT22;16223;47.966;-1.616;2022-07-29T03:26:07;17.9;75
29173;DHT22;16223;47.966;-1.616;2022-07-29T03:27:07;17.9;75
29173;DHT22;16223;47.966;-1.616;2022-07-29T03:28:08;17.9;75
29173;DHT22;16223;47.966;-1.616;2022-07-29T03:29:07;17.9;75
29173;DHT22;16223;47.966;-1.616;2022-07-29T03:30:09;17.9;75
29173;DHT22;16223;47.966;-1.616;2022-07-29T03:31:06;17.9;75
29173;DHT22;16223;47.966;-1.616;2022-07-29T03:32:08;17.9;75
29173;DHT22;16223;47.966;-1.616;2022-07-29T03:33:07;17.9;75
29173;DHT22;16223;47.966;-1.616;2022-07-29T03:34:07;17.9;75
29173;DHT22;16223;47.966;-1.616;2022-07-29T03:35:08;17.9;75
29173;DHT22;16223;47.966;-1.616;2022-07-29T03:36:07;17.9;75
29173;DHT22;16223;47.966;-1.616;2022-07-29T03:37:08;17.9;75
29173;DHT22;16223;47.966;-1.616;2022-07-29T03:38:07;17.9;75
29173;DHT22;16223;47.966;-1.616;2022-07-29T03:39:08;17.9;75
29173;DHT22;16223;47.966;-1.616;2022-07-29T03:40:10;17.9;75
29173;DHT22;16223;47.966;-1.616;2022-07-29T03:41:10;17.9;75
29173;DHT22;16223;47.966;-1.616;2022-07-29T03:42:10;17.9;75
29173;DHT22;16223;47.966;-1.616;2022-07-29T03:43:08;17.9;75
29173;DHT22;16223;47.966;-1.616;2022-07-29T03:44:08;17.9;75
29173;DHT22;16223;47.966;-1.616;2022-07-29T03:45:10;17.9;75
29173;DHT22;16223;47.966;-1.616;2022-07-29T03:46:09;17.9;75
29173;DHT22;16223;47.966;-1.616;2022-07-29T03:47:08;17.9;75
29173;DHT22;16223;47.966;-1.616;2022-07-29T03:48:10;17.9;75
29173;DHT22;16223;47.966;-1.616;2022-07-29T03:49:09;17.9;75
29173;DHT22;16223;47.966;-1.616;2022-07-29T03:50:10;17.9;75
29173;DHT22;16223;47.966;-1.616;2022-07-29T03:51:08;17.9;75
29173;DHT22;16223;47.966;-1.616;2022-07-29T03:52:07;17.9;75
29173;DHT22;16223;47.966;-1.616;2022-07-29T03:53:08;17.9;75
29173;DHT22;16223;47.966;-1.616;2022-07-29T03:54:07;17.9;75
29173;DHT22;16223;47.966;-1.616;2022-07-29T03:55:08;17.9;75
29173;DHT22;16223;47.966;-1.616;2022-07-29T03:56:09;17.9;75
29173;DHT22;16223;47.966;-1.616;2022-07-29T03:57:09;17.9;75
29173;DHT22;16223;47.966;-1.616;2022-07-29T03:58:09;17.9;75
29173;DHT22;16223;47.966;-1.616;2022-07-29T03:59:08;17.8;74
29173;DHT22;16223;47.966;-1.616;2022-07-29T04:00:09;17.8;74
29173;DHT22;16223;47.966;-1.616;2022-07-29T04:01:07;17.8;74
29173;DHT22;16223;47.966;-1.616;2022-07-29T04:02:11;17.8;74
29173;DHT22;16223;47.966;-1.616;2022-07-29T04:03:07;17.8;74
29173;DHT22;16223;47.966;-1.616;2022-07-29T04:04:07;17.8;74
29173;DHT22;16223;47.966;-1.616;2022-07-29T04:05:11;17.8;74
29173;DHT22;16223;47.966;-1.616;2022-07-29T04:06:08;17.8;74
29173;DHT22;16223;47.966;-1.616;2022-07-29T04:07:08;17.8;74
29173;DHT22;16223;47.966;-1.616;2022-07-29T04:08:08;17.8;74
29173;DHT22;16223;47.966;-1.616;2022-07-29T04:09:07;17.8;74
29173;DHT22;16223;47.966;-1.616;2022-07-29T04:10:08;17.8;74
29173;DHT22;16223;47.966;-1.616;2022-07-29T04:11:07;17.8;74
29173;DHT22;16223;47.966;-1.616;2022-07-29T04:12:07;17.8;74
29173;DHT22;16223;47.966;-1.616;2022-07-29T04:13:07;17.8;74
29173;DHT22;16223;47.966;-1.616;2022-07-29T04:14:07;17.8;74
29173;DHT22;16223;47.966;-1.616;2022-07-29T04:15:08;17.8;74
29173;DHT22;16223;47.966;-1.616;2022-07-29T04:16:10;17.8;74
29173;DHT22;16223;47.966;-1.616;2022-07-29T04:17:07;17.8;74
29173;DHT22;16223;47.966;-1.616;2022-07-29T04:18:05;17.8;74
29173;DHT22;16223;47.966;-1.616;2022-07-29T04:19:07;17.8;74
29173;DHT22;16223;47.966;-1.616;2022-07-29T04:20:11;17.8;74
29173;DHT22;16223;47.966;-1.616;2022-07-29T04:21:07;17.8;74
29173;DHT22;16223;47.966;-1.616;2022-07-29T04:22:06;17.8;74
29173;DHT22;16223;47.966;-1.616;2022-07-29T04:23:07;17.8;74
29173;DHT22;16223;47.966;-1.616;2022-07-29T04:24:08;17.8;74
29173;DHT22;16223;47.966;-1.616;2022-07-29T04:25:08;17.8;74
29173;DHT22;16223;47.966;-1.616;2022-07-29T04:26:07;17.8;74
29173;DHT22;16223;47.966;-1.616;2022-07-29T04:27:07;17.8;74
29173;DHT22;16223;47.966;-1.616;2022-07-29T04:28:12;17.8;74
29173;DHT22;16223;47.966;-1.616;2022-07-29T04:29:07;17.8;74
29173;DHT22;16223;47.966;-1.616;2022-07-29T04:30:08;17.8;74
29173;DHT22;16223;47.966;-1.616;2022-07-29T04:31:06;17.8;74
29173;DHT22;16223;47.966;-1.616;2022-07-29T04:32:07;17.8;74
29173;DHT22;16223;47.966;-1.616;2022-07-29T04:33:08;17.8;74
29173;DHT22;16223;47.966;-1.616;2022-07-29T04:34:07;17.8;74
29173;DHT22;16223;47.966;-1.616;2022-07-29T04:35:08;17.8;74
29173;DHT22;16223;47.966;-1.616;2022-07-29T04:36:07;17.8;74
29173;DHT22;16223;47.966;-1.616;2022-07-29T04:37:07;17.8;74
29173;DHT22;16223;47.966;-1.616;2022-07-29T04:38:07;17.8;74
29173;DHT22;16223;47.966;-1.616;2022-07-29T04:39:06;17.8;74
29173;DHT22;16223;47.966;-1.616;2022-07-29T04:40:08;17.8;74
29173;DHT22;16223;47.966;-1.616;2022-07-29T04:41:07;17.8;74
29173;DHT22;16223;47.966;-1.616;2022-07-29T04:42:06;17.8;74
29173;DHT22;16223;47.966;-1.616;2022-07-29T04:43:07;17.8;74
29173;DHT22;16223;47.966;-1.616;2022-07-29T04:44:07;17.8;74
29173;DHT22;16223;47.966;-1.616;2022-07-29T04:45:08;17.8;74
29173;DHT22;16223;47.966;-1.616;2022-07-29T04:46:08;17.8;74
29173;DHT22;16223;47.966;-1.616;2022-07-29T04:47:09;17.8;74
29173;DHT22;16223;47.966;-1.616;2022-07-29T04:48:07;17.8;74
29173;DHT22;16223;47.966;-1.616;2022-07-29T04:49:07;17.8;74
29173;DHT22;16223;47.966;-1.616;2022-07-29T04:50:07;17.8;74
29173;DHT22;16223;47.966;-1.616;2022-07-29T04:51:07;17.8;74
29173;DHT22;16223;47.966;-1.616;2022-07-29T04:52:07;17.8;74
29173;DHT22;16223;47.966;-1.616;2022-07-29T04:53:07;17.8;74
29173;DHT22;16223;47.966;-1.616;2022-07-29T04:54:07;17.8;74
29173;DHT22;16223;47.966;-1.616;2022-07-29T04:55:08;17.8;74
29173;DHT22;16223;47.966;-1.616;2022-07-29T04:56:07;17.8;74
29173;DHT22;16223;47.966;-1.616;2022-07-29T04:57:07;17.7;73
29173;DHT22;16223;47.966;-1.616;2022-07-29T04:58:07;17.7;73
29173;DHT22;16223;47.966;-1.616;2022-07-29T04:59:06;17.7;73
29173;DHT22;16223;47.966;-1.616;2022-07-29T05:00:08;17.7;73
29173;DHT22;16223;47.966;-1.616;2022-07-29T05:01:06;17.7;73
29173;DHT22;16223;47.966;-1.616;2022-07-29T05:02:07;17.7;73
29173;DHT22;16223;47.966;-1.616;2022-07-29T05:03:07;17.7;73
29173;DHT22;16223;47.966;-1.616;2022-07-29T05:04:07;17.7;73
29173;DHT22;16223;47.966;-1.616;2022-07-29T05:05:07;17.7;73
29173;DHT22;16223;47.966;-1.616;2022-07-29T05:06:07;17.7;73
29173;DHT22;16223;47.966;-1.616;2022-07-29T05:07:07;17.7;73
29173;DHT22;16223;47.966;-1.616;2022-07-29T05:08:07;17.7;73
29173;DHT22;16223;47.966;-1.616;2022-07-29T05:09:06;17.7;73
29173;DHT22;16223;47.966;-1.616;2022-07-29T05:10:07;17.7;73
29173;DHT22;16223;47.966;-1.616;2022-07-29T05:11:07;17.7;73
29173;DHT22;16223;47.966;-1.616;2022-07-29T05:12:07;17.7;73
29173;DHT22;16223;47.966;-1.616;2022-07-29T05:13:07;17.7;73
29173;DHT22;16223;47.966;-1.616;2022-07-29T05:14:07;17.7;73
29173;DHT22;16223;47.966;-1.616;2022-07-29T05:15:08;17.7;73
29173;DHT22;16223;47.966;-1.616;2022-07-29T05:16:07;17.7;73
29173;DHT22;16223;47.966;-1.616;2022-07-29T05:17:06;17.7;73
29173;DHT22;16223;47.966;-1.616;2022-07-29T05:18:07;17.7;73
29173;DHT22;16223;47.966;-1.616;2022-07-29T05:19:07;17.7;73
29173;DHT22;16223;47.966;-1.616;2022-07-29T05:20:09;17.7;73
29173;DHT22;16223;47.966;-1.616;2022-07-29T05:21:07;17.7;73
29173;DHT22;16223;47.966;-1.616;2022-07-29T05:22:06;17.7;73
29173;DHT22;16223;47.966;-1.616;2022-07-29T05:23:07;17.7;73
29173;DHT22;16223;47.966;-1.616;2022-07-29T05:24:10;17.7;73
29173;DHT22;16223;47.966;-1.616;2022-07-29T05:25:07;17.7;73
29173;DHT22;16223;47.966;-1.616;2022-07-29T05:26:06;17.7;73
29173;DHT22;16223;47.966;-1.616;2022-07-29T05:27:07;17.7;73
29173;DHT22;16223;47.966;-1.616;2022-07-29T05:28:07;17.7;73
29173;DHT22;16223;47.966;-1.616;2022-07-29T05:29:07;17.7;73
29173;DHT22;16223;47.966;-1.616;2022-07-29T05:30:08;17.7;73
29173;DHT22;16223;47.966;-1.616;2022-07-29T05:31:07;17.7;73
29173;DHT22;16223;47.966;-1.616;2022-07-29T05:32:07;17.7;73
29173;DHT22;16223;47.966;-1.616;2022-07-29T05:33:06;17.7;73
29173;DHT22;16223;47.966;-1.616;2022-07-29T05:34:07;17.7;73
29173;DHT22;16223;47.966;-1.616;2022-07-29T05:35:08;17.7;73
29173;DHT22;16223;47.966;-1.616;2022-07-29T05:36:07;17.7;73
29173;DHT22;16223;47.966;-1.616;2022-07-29T05:37:06;17.7;73
29173;DHT22;16223;47.966;-1.616;2022-07-29T05:38:06;17.7;73
29173;DHT22;16223;47.966;-1.616;2022-07-29T05:39:07;17.7;73
29173;DHT22;16223;47.966;-1.616;2022-07-29T05:40:08;17.7;73
29173;DHT22;16223;47.966;-1.616;2022-07-29T05:41:07;17.7;73
29173;DHT22;16223;47.966;-1.616;2022-07-29T05:42:10;17.7;73
29173;DHT22;16223;47.966;-1.616;2022-07-29T05:43:07;17.7;73
29173;DHT22;16223;47.966;-1.616;2022-07-29T05:44:07;17.7;73
29173;DHT22;16223;47.966;-1.616;2022-07-29T05:45:08;17.7;73
29173;DHT22;16223;47.966;-1.616;2022-07-29T05:46:06;17.7;73
29173;DHT22;16223;47.966;-1.616;2022-07-29T05:47:07;17.7;73
29173;DHT22;16223;47.966;-1.616;2022-07-29T05:48:06;17.7;73
29173;DHT22;16223;47.966;-1.616;2022-07-29T05:49:06;17.7;73
29173;DHT22;16223;47.966;-1.616;2022-07-29T05:50:08;17.7;73
29173;DHT22;16223;47.966;-1.616;2022-07-29T05:51:07;18.1;73
29173;DHT22;16223;47.966;-1.616;2022-07-29T05:52:07;18.1;73
29173;DHT22;16223;47.966;-1.616;2022-07-29T05:53:07;18.1;73
29173;DHT22;16223;47.966;-1.616;2022-07-29T05:54:06;18.1;73
29173;DHT22;16223;47.966;-1.616;2022-07-29T05:55:07;18.1;73
29173;DHT22;16223;47.966;-1.616;2022-07-29T05:56:07;18.2;73
29173;DHT22;16223;47.966;-1.616;2022-07-29T05:57:07;18.2;73
29173;DHT22;16223;47.966;-1.616;2022-07-29T05:58:07;18.2;73
29173;DHT22;16223;47.966;-1.616;2022-07-29T05:59:07;18.2;73
29173;DHT22;16223;47.966;-1.616;2022-07-29T06:00:17;18.2;73
29173;DHT22;16223;47.966;-1.616;2022-07-29T06:01:06;18.2;73
29173;DHT22;16223;47.966;-1.616;2022-07-29T06:02:07;18.2;73
29173;DHT22;16223;47.966;-1.616;2022-07-29T06:03:07;18.2;73
29173;DHT22;16223;47.966;-1.616;2022-07-29T06:04:07;18.2;73
29173;DHT22;16223;47.966;-1.616;2022-07-29T06:05:07;18.2;73
29173;DHT22;16223;47.966;-1.616;2022-07-29T06:06:07;18.2;73
29173;DHT22;16223;47.966;-1.616;2022-07-29T06:07:07;18.2;73
29173;DHT22;16223;47.966;-1.616;2022-07-29T06:08:07;18.2;73
29173;DHT22;16223;47.966;-1.616;2022-07-29T06:09:06;18.2;73
29173;DHT22;16223;47.966;-1.616;2022-07-29T06:10:07;18.2;73
29173;DHT22;16223;47.966;-1.616;2022-07-29T06:11:07;18.2;73
29173;DHT22;16223;47.966;-1.616;2022-07-29T06:12:07;18.2;73
29173;DHT22;16223;47.966;-1.616;2022-07-29T06:13:06;18.2;73
29173;DHT22;16223;47.966;-1.616;2022-07-29T06:14:07;18.2;73
29173;DHT22;16223;47.966;-1.616;2022-07-29T06:15:08;18.2;73
29173;DHT22;16223;47.966;-1.616;2022-07-29T06:16:07;18.2;73
29173;DHT22;16223;47.966;-1.616;2022-07-29T06:17:07;18.2;73
29173;DHT22;16223;47.966;-1.616;2022-07-29T06:18:07;18.2;73
29173;DHT22;16223;47.966;-1.616;2022-07-29T06:19:07;18.2;73
29173;DHT22;16223;47.966;-1.616;2022-07-29T06:20:08;18.2;73
29173;DHT22;16223;47.966;-1.616;2022-07-29T06:21:10;18.2;73
29173;DHT22;16223;47.966;-1.616;2022-07-29T06:22:06;18.2;73
29173;DHT22;16223;47.966;-1.616;2022-07-29T06:23:07;18.2;73
29173;DHT22;16223;47.966;-1.616;2022-07-29T06:24:08;18.2;73
29173;DHT22;16223;47.966;-1.616;2022-07-29T06:25:08;18.2;73
29173;DHT22;16223;47.966;-1.616;2022-07-29T06:26:07;18.2;73
29173;DHT22;16223;47.966;-1.616;2022-07-29T06:27:07;18.2;73
29173;DHT22;16223;47.966;-1.616;2022-07-29T06:28:07;18.2;73
29173;DHT22;16223;47.966;-1.616;2022-07-29T06:29:07;18.2;73
29173;DHT22;16223;47.966;-1.616;2022-07-29T06:30:08;18.2;73
29173;DHT22;16223;47.966;-1.616;2022-07-29T06:31:07;18.2;73
29173;DHT22;16223;47.966;-1.616;2022-07-29T06:32:08;18.2;73
29173;DHT22;16223;47.966;-1.616;2022-07-29T06:33:07;18.8;72
29173;DHT22;16223;47.966;-1.616;2022-07-29T06:34:07;18.8;72
29173;DHT22;16223;47.966;-1.616;2022-07-29T06:35:08;18.8;72
29173;DHT22;16223;47.966;-1.616;2022-07-29T06:36:08;18.8;72
29173;DHT22;16223;47.966;-1.616;2022-07-29T06:37:09;18.8;72
29173;DHT22;16223;47.966;-1.616;2022-07-29T06:38:07;18.8;72